createdAt,value
2023-04-28T00:00:29.592Z,68.80
2023-04-28T00:03:31.260Z,68.80
2023-04-28T00:06:33.142Z,69.00
2023-04-28T00:09:34.819Z,69.10
2023-04-28T00:12:36.416Z,69.80
2023-04-28T00:15:38.012Z,70.80
2023-04-28T00:18:39.686Z,71.60
2023-04-28T00:21:41.251Z,71.80
2023-04-28T00:24:42.812Z,73.10
2023-04-28T00:27:44.368Z,72.70
2023-04-28T00:30:46.755Z,73.10
2023-04-28T00:33:48.475Z,73.30
2023-04-28T00:36:50.251Z,72.30
2023-04-28T00:39:55.877Z,74.20
2023-04-28T00:42:57.600Z,75.40
2023-04-28T00:45:59.437Z,73.50
2023-04-28T00:49:01.536Z,75.50
2023-04-28T00:52:06.110Z,74.80
2023-04-28T00:55:09.104Z,76.10
2023-04-28T00:58:10.812Z,75.90
2023-04-28T01:01:12.536Z,75.50
2023-04-28T01:04:14.965Z,75.80
2023-04-28T01:07:16.906Z,76.00
2023-04-28T01:10:18.690Z,76.70
2023-04-28T01:13:20.604Z,77.80
2023-04-28T01:16:22.318Z,77.50
2023-04-28T01:19:24.078Z,77.10
2023-04-28T01:22:25.757Z,77.60
2023-04-28T01:25:27.432Z,77.60
2023-04-28T01:28:28.971Z,77.90
2023-04-28T01:31:31.249Z,78.50
2023-04-28T01:34:33.011Z,78.80
2023-04-28T01:37:34.820Z,79.50
2023-04-28T01:40:36.638Z,79.70
2023-04-28T01:43:38.170Z,79.90
2023-04-28T01:46:39.779Z,80.10
2023-04-28T01:49:41.573Z,80.40
2023-04-28T01:52:43.146Z,80.50
2023-04-28T01:55:44.753Z,80.60
2023-04-28T01:58:46.444Z,81.30
2023-04-28T02:01:48.099Z,82.00
2023-04-28T02:04:49.687Z,82.50
2023-04-28T02:07:51.291Z,83.20
2023-04-28T02:10:53.238Z,83.20
2023-04-28T02:13:54.828Z,82.10
2023-04-28T02:16:56.376Z,83.40
2023-04-28T02:19:58.151Z,83.00
2023-04-28T02:22:59.689Z,82.30
2023-04-28T02:26:02.231Z,82.80
2023-04-28T02:29:04.315Z,83.10
2023-04-28T02:32:06.026Z,83.20
2023-04-28T02:35:08.165Z,83.80
2023-04-28T02:38:09.822Z,83.40
2023-04-28T02:41:11.510Z,83.80
2023-04-28T02:44:13.145Z,83.40
2023-04-28T02:47:14.755Z,84.20
2023-04-28T02:50:16.329Z,84.20
2023-04-28T02:53:17.983Z,84.30
2023-04-28T02:56:19.557Z,84.90
2023-04-28T02:59:21.697Z,84.80
2023-04-28T03:02:23.507Z,86.00
2023-04-28T03:05:25.428Z,85.30
2023-04-28T03:08:27.077Z,85.10
2023-04-28T03:11:28.617Z,85.60
2023-04-28T03:14:30.660Z,85.80
2023-04-28T03:17:32.425Z,85.70
2023-04-28T03:20:34.010Z,86.90
2023-04-28T03:23:35.564Z,86.00
2023-04-28T03:26:37.216Z,86.20
2023-04-28T03:29:38.806Z,86.50
2023-04-28T03:32:40.393Z,86.50
2023-04-28T03:35:41.972Z,86.60
2023-04-28T03:38:44.032Z,86.50
2023-04-28T03:41:45.556Z,86.40
2023-04-28T03:44:47.088Z,86.20
2023-04-28T03:47:48.640Z,86.60
2023-04-28T03:50:50.954Z,86.60
2023-04-28T03:53:52.558Z,86.60
2023-04-28T03:56:54.155Z,87.90
2023-04-28T03:59:55.942Z,86.80
2023-04-28T04:02:57.799Z,87.10
2023-04-28T04:05:59.632Z,87.10
2023-04-28T04:09:01.291Z,86.80
2023-04-28T04:12:03.156Z,87.10
2023-04-28T04:15:05.322Z,86.90
2023-04-28T04:18:06.934Z,86.50
2023-04-28T04:21:08.861Z,87.40
2023-04-28T04:24:10.480Z,87.40
2023-04-28T04:27:12.240Z,87.80
2023-04-28T04:30:13.899Z,87.60
2023-04-28T04:33:15.494Z,87.50
2023-04-28T04:36:17.277Z,87.60
2023-04-28T04:39:18.841Z,87.80
2023-04-28T04:42:25.323Z,87.90
2023-04-28T04:45:27.610Z,87.80
2023-04-28T04:48:29.697Z,88.30
2023-04-28T04:51:31.345Z,88.10
2023-04-28T04:54:33.115Z,88.10
2023-04-28T04:57:34.644Z,88.30
2023-04-28T05:00:37.536Z,88.30
2023-04-28T05:03:39.283Z,88.50
2023-04-28T05:06:41.167Z,88.60
2023-04-28T05:09:42.765Z,88.80
2023-04-28T05:12:45.609Z,88.80
2023-04-28T05:15:50.342Z,89.20
2023-04-28T05:18:53.570Z,89.20
2023-04-28T05:21:55.216Z,88.70
2023-04-28T05:24:56.869Z,89.60
2023-04-28T05:27:58.589Z,89.60
2023-04-28T05:31:00.395Z,89.70
2023-04-28T05:34:02.060Z,89.90
2023-04-28T05:37:03.610Z,89.80
2023-04-28T05:40:06.107Z,90.00
2023-04-28T05:43:07.686Z,89.40
2023-04-28T05:46:18.221Z,90.30
2023-04-28T05:49:23.802Z,90.00
2023-04-28T05:52:25.353Z,89.80
2023-04-28T05:55:27.361Z,90.00
2023-04-28T05:58:29.512Z,90.00
2023-04-28T06:01:32.055Z,90.20
2023-04-28T06:04:33.832Z,90.10
2023-04-28T06:07:35.615Z,90.20
2023-04-28T06:10:37.240Z,90.30
2023-04-28T06:13:38.827Z,90.30
2023-04-28T06:16:40.607Z,90.40
2023-04-28T06:19:42.183Z,90.40
2023-04-28T06:22:43.718Z,90.40
2023-04-28T06:25:45.479Z,90.50
2023-04-28T06:28:47.086Z,90.50
2023-04-28T06:31:48.782Z,90.60
2023-04-28T06:34:50.576Z,89.90
2023-04-28T06:37:52.190Z,89.70
2023-04-28T06:40:53.898Z,89.70
2023-04-28T06:43:55.497Z,89.10
2023-04-28T06:46:57.233Z,89.60
2023-04-28T06:49:58.784Z,89.50
2023-04-28T06:53:01.210Z,89.80
2023-04-28T06:56:03.047Z,90.00
2023-04-28T06:59:04.678Z,90.00
2023-04-28T07:02:06.904Z,89.80
2023-04-28T07:05:09.372Z,90.10
2023-04-28T07:08:11.485Z,90.20
2023-04-28T07:11:13.071Z,90.20
2023-04-28T07:14:14.885Z,90.20
2023-04-28T07:17:17.098Z,90.20
2023-04-28T07:20:18.760Z,90.10
2023-04-28T07:23:20.558Z,89.80
2023-04-28T07:26:24.860Z,89.20
2023-04-28T07:29:28.979Z,89.60
2023-04-28T07:32:30.752Z,89.20
2023-04-28T07:35:32.618Z,90.10
2023-04-28T07:38:37.389Z,89.10
2023-04-28T07:41:39.127Z,90.20
2023-04-28T07:44:40.717Z,90.20
2023-04-28T07:47:42.424Z,89.50
2023-04-28T07:50:44.055Z,89.70
2023-04-28T07:53:45.643Z,89.50
2023-04-28T07:56:47.385Z,89.50
2023-04-28T07:59:48.954Z,89.60
2023-04-28T08:02:51.197Z,89.70
2023-04-28T08:05:53.046Z,90.30
2023-04-28T08:08:55.805Z,89.60
2023-04-28T08:11:58.882Z,89.80
2023-04-28T08:15:00.496Z,89.60
2023-04-28T08:18:02.372Z,89.60
2023-04-28T08:21:04.226Z,89.30
2023-04-28T08:24:06.821Z,89.40
2023-04-28T08:27:08.613Z,89.70
2023-04-28T08:30:10.521Z,89.40
2023-04-28T08:33:12.127Z,89.40
2023-04-28T08:36:15.040Z,89.20
2023-04-28T08:39:17.190Z,88.80
2023-04-28T08:42:19.121Z,88.60
2023-04-28T08:45:23.623Z,88.90
2023-04-28T08:48:26.608Z,89.10
2023-04-28T08:51:34.589Z,89.10
2023-04-28T08:54:37.829Z,89.30
2023-04-28T08:57:49.842Z,88.90
2023-04-28T09:00:52.860Z,89.10
2023-04-28T09:03:54.942Z,89.20
2023-04-28T09:06:56.786Z,89.10
2023-04-28T09:10:21.063Z,89.40
2023-04-28T09:13:26.487Z,87.70
2023-04-28T09:16:41.354Z,89.10
2023-04-28T09:19:43.397Z,89.40
2023-04-28T09:22:45.376Z,89.20
2023-04-28T09:25:57.377Z,88.80
2023-04-28T09:29:13.151Z,89.20
2023-04-28T09:32:14.937Z,89.80
2023-04-28T09:35:16.738Z,89.30
2023-04-28T09:38:20.769Z,89.90
2023-04-28T09:41:34.734Z,90.20
2023-04-28T09:44:36.312Z,90.60
2023-04-28T09:47:43.274Z,90.30
2023-04-28T09:50:45.140Z,90.30
2023-04-28T09:53:46.745Z,90.00
2023-04-28T09:56:49.294Z,89.50
2023-04-28T09:59:52.249Z,88.70
2023-04-28T10:02:54.362Z,89.40
2023-04-28T10:05:58.188Z,89.30
2023-04-28T10:09:00.747Z,89.90
2023-04-28T10:12:03.428Z,89.70
2023-04-28T10:15:05.418Z,89.80
2023-04-28T10:18:08.597Z,89.00
2023-04-28T10:21:12.034Z,89.50
2023-04-28T10:24:26.979Z,89.10
2023-04-28T10:27:34.049Z,90.10
2023-04-28T10:30:36.061Z,90.20
2023-04-28T10:33:38.931Z,90.60
2023-04-28T10:36:48.106Z,90.20
2023-04-28T10:40:28.276Z,90.40
2023-04-28T10:43:32.586Z,89.70
2023-04-28T10:47:02.196Z,89.00
2023-04-28T10:50:08.636Z,89.50
2023-04-28T10:53:10.225Z,90.40
2023-04-28T10:56:23.493Z,90.50
2023-04-28T10:59:29.997Z,90.10
2023-04-28T11:02:41.825Z,90.90
2023-04-28T11:06:25.992Z,91.30
2023-04-28T11:09:33.683Z,90.00
2023-04-28T11:12:35.453Z,90.50
2023-04-28T11:15:38.968Z,90.20
2023-04-28T11:18:54.948Z,90.30
2023-04-28T11:21:58.858Z,89.80
2023-04-28T11:25:04.472Z,90.60
2023-04-28T11:28:08.429Z,91.10
2023-04-28T11:31:16.292Z,90.90
2023-04-28T11:34:22.095Z,91.20
2023-04-28T11:37:23.968Z,91.50
2023-04-28T11:40:27.749Z,91.10
2023-04-28T11:43:43.770Z,91.50
2023-04-28T11:46:56.075Z,91.60
2023-04-28T11:49:58.018Z,91.80
2023-04-28T11:52:59.620Z,91.30
2023-04-28T11:56:11.005Z,91.10
2023-04-28T11:59:13.679Z,90.70
2023-04-28T12:02:17.014Z,91.10
2023-04-28T12:05:21.968Z,91.20
2023-04-28T12:08:29.599Z,91.30
2023-04-28T12:11:31.333Z,91.60
2023-04-28T12:14:53.072Z,90.90
2023-04-28T12:17:54.673Z,91.30
2023-04-28T12:20:56.300Z,91.80
2023-04-28T12:23:57.931Z,92.10
2023-04-28T12:27:24.798Z,92.40
2023-04-28T12:30:32.545Z,92.00
2023-04-28T12:33:38.568Z,92.90
2023-04-28T12:36:40.294Z,92.30
2023-04-28T12:39:42.492Z,92.50
2023-04-28T12:42:44.333Z,92.00
2023-04-28T12:45:45.909Z,91.90
2023-04-28T12:48:47.482Z,91.80
2023-04-28T12:51:49.106Z,91.60
2023-04-28T12:54:50.713Z,91.30
2023-04-28T12:57:52.359Z,90.90
2023-04-28T13:00:53.920Z,90.90
2023-04-28T13:03:55.990Z,90.60
2023-04-28T13:06:58.695Z,90.30
2023-04-28T13:10:00.286Z,90.60
2023-04-28T13:13:01.902Z,90.60
2023-04-28T13:16:04.677Z,91.30
2023-04-28T13:19:10.464Z,90.40
2023-04-28T13:22:12.316Z,90.70
2023-04-28T13:25:13.947Z,90.60
2023-04-28T13:28:15.661Z,90.60
2023-04-28T13:31:17.249Z,90.80
2023-04-28T13:34:19.015Z,90.80
2023-04-28T13:37:20.764Z,90.30
2023-04-28T13:40:22.404Z,89.70
2023-04-28T13:43:24.379Z,89.50
2023-04-28T13:46:27.489Z,88.00
2023-04-28T13:49:29.208Z,89.80
2023-04-28T13:52:30.952Z,89.30
2023-04-28T13:55:32.536Z,90.00
2023-04-28T13:58:34.812Z,90.10
2023-04-28T14:01:36.386Z,90.60
2023-04-28T14:04:38.594Z,91.10
2023-04-28T14:07:40.614Z,91.00
2023-04-28T14:10:42.216Z,91.10
2023-04-28T14:13:44.180Z,90.70
2023-04-28T14:16:47.457Z,90.70
2023-04-28T14:19:49.343Z,90.10
2023-04-28T14:22:50.926Z,89.50
2023-04-28T14:25:56.938Z,90.20
2023-04-28T14:29:00.105Z,89.90
2023-04-28T14:32:02.036Z,90.70
2023-04-28T14:35:05.832Z,90.80
2023-04-28T14:38:08.001Z,90.90
2023-04-28T14:41:09.592Z,91.20
2023-04-28T14:44:11.265Z,91.00
2023-04-28T14:47:13.974Z,90.90
2023-04-28T14:50:15.834Z,90.30
2023-04-28T14:53:17.376Z,90.30
2023-04-28T14:56:20.330Z,90.40
2023-04-28T14:59:21.914Z,90.30
2023-04-28T15:02:29.001Z,90.70
2023-04-28T15:05:30.821Z,91.30
2023-04-28T15:08:33.425Z,90.90
2023-04-28T15:11:35.000Z,90.80
2023-04-28T15:14:36.623Z,91.00
2023-04-28T15:17:38.685Z,91.00
2023-04-28T15:20:40.452Z,90.80
2023-04-28T15:23:42.709Z,90.50
2023-04-28T15:26:44.245Z,90.90
2023-04-28T15:29:46.318Z,90.80
2023-04-28T15:32:49.476Z,90.70
2023-04-28T15:35:51.142Z,91.20
2023-04-28T15:38:52.832Z,91.10
2023-04-28T15:41:54.396Z,91.70
2023-04-28T15:44:56.418Z,91.70
2023-04-28T15:47:58.128Z,91.40
2023-04-28T15:50:59.824Z,91.70
2023-04-28T15:54:01.496Z,92.50
2023-04-28T15:57:03.470Z,92.30
2023-04-28T16:00:07.973Z,92.00
2023-04-28T16:03:09.697Z,91.50
2023-04-28T16:06:12.085Z,91.80
2023-04-28T16:09:13.932Z,91.00
2023-04-28T16:12:15.541Z,90.90
2023-04-28T16:15:17.273Z,90.60
2023-04-28T16:18:20.355Z,90.80
2023-04-28T16:21:22.326Z,90.50
2023-04-28T16:24:24.616Z,90.90
2023-04-28T16:27:26.782Z,90.90
2023-04-28T16:30:28.881Z,91.10
2023-04-28T16:33:30.935Z,90.90
2023-04-28T16:36:32.848Z,91.30
2023-04-28T16:39:34.587Z,91.60
2023-04-28T16:42:36.515Z,91.00
2023-04-28T16:45:38.148Z,91.10
2023-04-28T16:48:39.730Z,91.10
2023-04-28T16:51:58.704Z,91.30
2023-04-28T16:55:00.467Z,92.00
2023-04-28T16:58:02.942Z,91.80
2023-04-28T17:01:04.666Z,91.80
2023-04-28T17:04:07.484Z,91.70
2023-04-28T17:07:09.277Z,91.80
2023-04-28T17:10:11.298Z,91.50
2023-04-28T17:13:12.966Z,91.70
2023-04-28T17:16:14.657Z,92.10
2023-04-28T17:19:16.690Z,91.60
2023-04-28T17:22:18.499Z,91.90
2023-04-28T17:25:23.293Z,91.70
2023-04-28T17:28:25.306Z,91.80
2023-04-28T17:31:28.497Z,91.70
2023-04-28T17:34:30.157Z,91.80
2023-04-28T17:37:33.137Z,92.30
2023-04-28T17:40:41.138Z,92.00
2023-04-28T17:43:43.146Z,92.00
2023-04-28T17:46:44.903Z,92.00
2023-04-28T17:49:46.979Z,92.20
2023-04-28T17:52:48.738Z,92.70
2023-04-28T17:55:50.329Z,92.50
2023-04-28T17:58:52.454Z,93.00
2023-04-28T18:01:56.123Z,92.50
2023-04-28T18:04:57.865Z,92.60
2023-04-28T18:08:04.647Z,92.50
2023-04-28T18:11:08.816Z,92.80
2023-04-28T18:14:10.402Z,92.90
2023-04-28T18:17:12.202Z,93.00
2023-04-28T18:20:13.810Z,93.30
2023-04-28T18:23:15.572Z,93.30
2023-04-28T18:26:17.232Z,92.80
2023-04-28T18:29:20.307Z,93.30
2023-04-28T18:32:22.248Z,93.20
2023-04-28T18:35:23.789Z,93.30
2023-04-28T18:38:26.036Z,93.50
2023-04-28T18:41:27.743Z,93.40
2023-04-28T18:44:29.608Z,93.40
2023-04-28T18:47:31.486Z,93.30
2023-04-28T18:50:33.305Z,93.40
2023-04-28T18:53:36.186Z,93.40
2023-04-28T18:56:37.725Z,93.60
2023-04-28T18:59:39.446Z,93.50
2023-04-28T19:02:41.229Z,93.50
2023-04-28T19:05:44.290Z,93.50
2023-04-28T19:08:45.837Z,93.70
2023-04-28T19:11:47.804Z,93.90
2023-04-28T19:14:49.693Z,93.30
2023-04-28T19:17:51.830Z,93.60
2023-04-28T19:21:04.288Z,94.20
2023-04-28T19:24:06.616Z,93.10
2023-04-28T19:27:08.852Z,93.60
2023-04-28T19:30:12.702Z,93.70
2023-04-28T19:33:14.282Z,93.80
2023-04-28T19:36:16.046Z,94.40
2023-04-28T19:39:17.867Z,93.80
2023-04-28T19:42:19.536Z,93.80
2023-04-28T19:45:21.201Z,94.40
2023-04-28T19:48:23.217Z,94.60
2023-04-28T19:51:24.766Z,94.20
2023-04-28T19:54:26.467Z,94.20
2023-04-28T19:57:28.164Z,94.10
2023-04-28T20:00:32.174Z,93.80
2023-04-28T20:03:34.880Z,94.20
2023-04-28T20:06:36.787Z,94.20
2023-04-28T20:09:38.817Z,94.10
2023-04-28T20:12:41.101Z,94.10
2023-04-28T20:15:43.078Z,94.00
2023-04-28T20:18:44.729Z,94.10
2023-04-28T20:21:46.313Z,94.20
2023-04-28T20:24:47.933Z,94.10
2023-04-28T20:27:49.556Z,94.20
2023-04-28T20:30:51.120Z,94.20
2023-04-28T20:33:52.679Z,94.50
2023-04-28T20:36:54.556Z,94.70
2023-04-28T20:39:56.187Z,94.80
2023-04-28T20:42:58.724Z,97.00
2023-04-28T20:46:00.341Z,95.20
2023-04-28T20:49:02.674Z,95.30
2023-04-28T20:52:05.851Z,95.50
2023-04-28T20:55:09.425Z,95.60
2023-04-28T20:58:11.022Z,95.70
2023-04-28T21:01:13.542Z,95.60
2023-04-28T21:04:15.716Z,95.80
2023-04-28T21:07:17.518Z,96.20
2023-04-28T21:10:19.124Z,95.80
2023-04-28T21:13:20.699Z,95.90
2023-04-28T21:16:22.388Z,95.90
2023-04-28T21:19:23.975Z,96.10
2023-04-28T21:22:26.031Z,96.20
2023-04-28T21:25:27.978Z,96.10
2023-04-28T21:28:29.584Z,96.20
2023-04-28T21:31:31.163Z,96.30
2023-04-28T21:34:33.656Z,96.40
2023-04-28T21:37:35.684Z,96.40
2023-04-28T21:40:38.095Z,96.90
2023-04-28T21:43:42.702Z,96.20
2023-04-28T21:46:44.682Z,96.40
2023-04-28T21:49:47.548Z,95.90
2023-04-28T21:52:49.196Z,96.90
2023-04-28T21:55:50.906Z,96.40
2023-04-28T21:58:52.517Z,96.60
2023-04-28T22:01:55.221Z,96.50
2023-04-28T22:04:57.149Z,97.00
2023-04-28T22:08:00.143Z,96.50
2023-04-28T22:11:02.059Z,96.70
2023-04-28T22:14:04.181Z,96.50
2023-04-28T22:17:06.073Z,96.70
2023-04-28T22:20:08.312Z,96.70
2023-04-28T22:23:09.941Z,96.60
2023-04-28T22:26:11.754Z,96.80
2023-04-28T22:29:13.375Z,97.00
2023-04-28T22:32:14.991Z,97.30
2023-04-28T22:35:17.054Z,97.40
2023-04-28T22:38:18.699Z,97.50
2023-04-28T22:41:20.445Z,97.60
2023-04-28T22:44:24.691Z,97.50
2023-04-28T22:47:26.255Z,97.90
2023-04-28T22:50:29.030Z,97.50
2023-04-28T22:53:30.593Z,97.80
2023-04-28T22:56:32.257Z,97.30
2023-04-28T22:59:33.823Z,97.30
2023-04-28T23:02:36.178Z,97.10
2023-04-28T23:05:38.647Z,97.60
2023-04-28T23:08:40.489Z,96.90
2023-04-28T23:11:42.205Z,96.90
2023-04-28T23:14:43.795Z,97.10
2023-04-28T23:17:45.382Z,96.90
2023-04-28T23:20:50.235Z,96.90
2023-04-28T23:23:51.994Z,97.10
2023-04-28T23:26:53.658Z,97.00
2023-04-28T23:29:55.285Z,97.40
2023-04-28T23:32:56.908Z,97.00
2023-04-28T23:35:58.439Z,97.10
2023-04-28T23:39:02.767Z,97.20
2023-04-28T23:42:04.375Z,97.30
2023-04-28T23:45:07.144Z,97.00
2023-04-28T23:48:08.725Z,97.70
2023-04-28T23:51:10.991Z,97.40
2023-04-28T23:54:15.386Z,97.10
2023-04-28T23:57:16.931Z,97.00
